Jamesville, New York
Current Conditions -  °F | °C
As of 9:54 PM on Friday 21 Nov 2014 (Local Time) from KSYR Reporting Station
Broken Clouds Broken Clouds  
Wind Chill: 15°   Ceiling: 5500
Heat Index: 25°   Visibility: 10mi
Dew Point: 14°   Wind: 10mph
Humidity: 63%   Direction: 240°WSW
Pressure: 30.43"   Gusts: NA
Location:  42.99°N, 76.07°W
Report Text: KSYR 220254Z 24009KT 10SM BKN055 M04/M10 A3043 RMK AO2 SLP307 T10391100 50002 $
Loading
Personal Weather Stations






























Interactive Weather Map New forecast layout! Learn more

10-Day Weather Forecast

Advertisements
Track Severe Weather on mobile